sensor_id;sensor_type;location;lat;lon;timestamp;P1;durP1;ratioP1;P2;durP2;ratioP2
6093;SDS011;19964;42.060;24.700;2023-08-30T00:01:05;33.65;;;24.95;;
6093;SDS011;19964;42.060;24.700;2023-08-30T00:03:33;34.45;;;24.45;;
6093;SDS011;19964;42.060;24.700;2023-08-30T00:10:59;30.10;;;23.05;;
6093;SDS011;19964;42.060;24.700;2023-08-30T00:18:22;32.40;;;24.30;;
6093;SDS011;19964;42.060;24.700;2023-08-30T00:20:49;30.30;;;23.90;;
6093;SDS011;19964;42.060;24.700;2023-08-30T00:23:16;31.60;;;23.00;;
6093;SDS011;19964;42.060;24.700;2023-08-30T00:25:45;28.60;;;23.60;;
6093;SDS011;19964;42.060;24.700;2023-08-30T00:28:12;27.20;;;23.10;;
6093;SDS011;19964;42.060;24.700;2023-08-30T00:30:39;28.90;;;22.70;;
6093;SDS011;19964;42.060;24.700;2023-08-30T00:33:06;33.35;;;22.60;;
6093;SDS011;19964;42.060;24.700;2023-08-30T00:42:56;30.30;;;21.40;;
6093;SDS011;19964;42.060;24.700;2023-08-30T00:45:23;27.50;;;20.70;;
6093;SDS011;19964;42.060;24.700;2023-08-30T00:47:51;26.35;;;19.80;;
6093;SDS011;19964;42.060;24.700;2023-08-30T00:50:18;26.00;;;20.90;;
6093;SDS011;19964;42.060;24.700;2023-08-30T00:52:45;26.00;;;19.50;;
6093;SDS011;19964;42.060;24.700;2023-08-30T00:55:12;25.90;;;20.40;;
6093;SDS011;19964;42.060;24.700;2023-08-30T00:57:40;25.47;;;19.10;;
6093;SDS011;19964;42.060;24.700;2023-08-30T01:00:09;23.47;;;19.17;;
6093;SDS011;19964;42.060;24.700;2023-08-30T01:02:37;21.40;;;18.60;;
6093;SDS011;19964;42.060;24.700;2023-08-30T01:05:05;23.20;;;18.70;;
6093;SDS011;19964;42.060;24.700;2023-08-30T01:07:33;25.75;;;18.65;;
6093;SDS011;19964;42.060;24.700;2023-08-30T01:10:00;22.50;;;18.20;;
6093;SDS011;19964;42.060;24.700;2023-08-30T01:12:29;22.40;;;18.45;;
6093;SDS011;19964;42.060;24.700;2023-08-30T01:15:06;25.75;;;18.55;;
6093;SDS011;19964;42.060;24.700;2023-08-30T01:17:38;21.65;;;18.30;;
6093;SDS011;19964;42.060;24.700;2023-08-30T01:20:11;25.90;;;18.40;;
6093;SDS011;19964;42.060;24.700;2023-08-30T01:22:43;24.55;;;18.40;;
6093;SDS011;19964;42.060;24.700;2023-08-30T01:25:25;24.60;;;19.90;;
6093;SDS011;19964;42.060;24.700;2023-08-30T01:28:03;23.43;;;18.20;;
6093;SDS011;19964;42.060;24.700;2023-08-30T01:30:32;22.50;;;19.03;;
6093;SDS011;19964;42.060;24.700;2023-08-30T01:33:00;24.13;;;18.60;;
6093;SDS011;19964;42.060;24.700;2023-08-30T01:35:28;27.40;;;19.85;;
6093;SDS011;19964;42.060;24.700;2023-08-30T01:37:58;22.45;;;18.25;;
6093;SDS011;19964;42.060;24.700;2023-08-30T01:40:27;22.23;;;19.00;;
6093;SDS011;19964;42.060;24.700;2023-08-30T01:42:56;21.70;;;19.40;;
6093;SDS011;19964;42.060;24.700;2023-08-30T01:45:26;26.37;;;18.90;;
6093;SDS011;19964;42.060;24.700;2023-08-30T01:47:55;21.30;;;18.25;;
6093;SDS011;19964;42.060;24.700;2023-08-30T01:50:23;26.55;;;18.80;;
6093;SDS011;19964;42.060;24.700;2023-08-30T01:52:52;23.60;;;19.33;;
6093;SDS011;19964;42.060;24.700;2023-08-30T01:55:21;21.00;;;17.70;;
6093;SDS011;19964;42.060;24.700;2023-08-30T01:57:49;33.25;;;19.35;;
6093;SDS011;19964;42.060;24.700;2023-08-30T02:00:16;26.20;;;19.10;;
6093;SDS011;19964;42.060;24.700;2023-08-30T02:02:45;21.70;;;18.35;;
6093;SDS011;19964;42.060;24.700;2023-08-30T02:05:12;23.90;;;18.85;;
6093;SDS011;19964;42.060;24.700;2023-08-30T02:07:42;21.00;;;18.10;;
6093;SDS011;19964;42.060;24.700;2023-08-30T02:10:15;25.25;;;18.60;;
6093;SDS011;19964;42.060;24.700;2023-08-30T02:12:47;21.25;;;18.30;;
6093;SDS011;19964;42.060;24.700;2023-08-30T02:15:16;26.20;;;18.80;;
6093;SDS011;19964;42.060;24.700;2023-08-30T02:20:17;19.60;;;17.50;;
6093;SDS011;19964;42.060;24.700;2023-08-30T02:22:44;22.85;;;18.90;;
6093;SDS011;19964;42.060;24.700;2023-08-30T02:25:11;25.70;;;17.30;;
6093;SDS011;19964;42.060;24.700;2023-08-30T02:37:28;17.30;;;15.55;;
6093;SDS011;19964;42.060;24.700;2023-08-30T02:39:55;23.70;;;16.60;;
6093;SDS011;19964;42.060;24.700;2023-08-30T02:44:49;18.25;;;16.15;;
6093;SDS011;19964;42.060;24.700;2023-08-30T02:47:16;18.50;;;15.50;;
6093;SDS011;19964;42.060;24.700;2023-08-30T02:49:43;20.30;;;16.00;;
6093;SDS011;19964;42.060;24.700;2023-08-30T02:52:12;19.20;;;15.40;;
6093;SDS011;19964;42.060;24.700;2023-08-30T02:54:39;17.00;;;14.97;;
6093;SDS011;19964;42.060;24.700;2023-08-30T02:57:06;19.40;;;14.67;;
6093;SDS011;19964;42.060;24.700;2023-08-30T02:59:33;17.10;;;14.80;;
6093;SDS011;19964;42.060;24.700;2023-08-30T03:04:28;16.15;;;14.55;;
6093;SDS011;19964;42.060;24.700;2023-08-30T03:09:23;16.35;;;14.00;;
6093;SDS011;19964;42.060;24.700;2023-08-30T03:11:49;16.70;;;14.30;;
6093;SDS011;19964;42.060;24.700;2023-08-30T03:16:43;16.75;;;14.65;;
6093;SDS011;19964;42.060;24.700;2023-08-30T03:19:12;17.45;;;13.95;;
6093;SDS011;19964;42.060;24.700;2023-08-30T03:21:39;17.80;;;13.70;;
6093;SDS011;19964;42.060;24.700;2023-08-30T03:24:06;17.60;;;13.95;;
6093;SDS011;19964;42.060;24.700;2023-08-30T03:26:34;15.10;;;13.10;;
6093;SDS011;19964;42.060;24.700;2023-08-30T03:31:28;16.70;;;12.60;;
6093;SDS011;19964;42.060;24.700;2023-08-30T03:33:55;21.40;;;13.90;;
6093;SDS011;19964;42.060;24.700;2023-08-30T03:36:22;16.50;;;13.50;;
6093;SDS011;19964;42.060;24.700;2023-08-30T03:38:49;14.10;;;12.60;;
6093;SDS011;19964;42.060;24.700;2023-08-30T03:41:17;15.00;;;13.45;;
6093;SDS011;19964;42.060;24.700;2023-08-30T03:43:45;17.73;;;12.70;;
6093;SDS011;19964;42.060;24.700;2023-08-30T03:46:12;14.90;;;13.30;;
6093;SDS011;19964;42.060;24.700;2023-08-30T03:48:39;14.83;;;11.50;;
6093;SDS011;19964;42.060;24.700;2023-08-30T03:51:06;14.03;;;12.63;;
6093;SDS011;19964;42.060;24.700;2023-08-30T03:53:33;15.20;;;13.70;;
6093;SDS011;19964;42.060;24.700;2023-08-30T03:56:00;16.50;;;12.63;;
6093;SDS011;19964;42.060;24.700;2023-08-30T03:58:28;17.13;;;13.57;;
6093;SDS011;19964;42.060;24.700;2023-08-30T04:00:57;15.90;;;13.33;;
6093;SDS011;19964;42.060;24.700;2023-08-30T04:03:24;17.67;;;14.13;;
6093;SDS011;19964;42.060;24.700;2023-08-30T04:05:54;18.17;;;13.23;;
6093;SDS011;19964;42.060;24.700;2023-08-30T04:08:22;14.27;;;12.77;;
6093;SDS011;19964;42.060;24.700;2023-08-30T04:10:51;14.57;;;12.90;;
6093;SDS011;19964;42.060;24.700;2023-08-30T04:13:18;19.67;;;13.93;;
6093;SDS011;19964;42.060;24.700;2023-08-30T04:15:45;19.03;;;13.23;;
6093;SDS011;19964;42.060;24.700;2023-08-30T04:18:14;15.93;;;13.17;;
6093;SDS011;19964;42.060;24.700;2023-08-30T04:20:43;18.67;;;12.70;;
6093;SDS011;19964;42.060;24.700;2023-08-30T04:23:10;13.77;;;12.47;;
6093;SDS011;19964;42.060;24.700;2023-08-30T04:25:37;16.27;;;12.00;;
6093;SDS011;19964;42.060;24.700;2023-08-30T04:28:04;17.97;;;13.03;;
6093;SDS011;19964;42.060;24.700;2023-08-30T04:30:31;15.83;;;12.33;;
6093;SDS011;19964;42.060;24.700;2023-08-30T04:32:59;15.60;;;12.20;;
6093;SDS011;19964;42.060;24.700;2023-08-30T04:35:29;13.83;;;12.47;;
6093;SDS011;19964;42.060;24.700;2023-08-30T04:37:57;17.53;;;12.47;;
6093;SDS011;19964;42.060;24.700;2023-08-30T04:40:24;13.97;;;12.03;;
6093;SDS011;19964;42.060;24.700;2023-08-30T04:42:51;15.57;;;12.87;;
6093;SDS011;19964;42.060;24.700;2023-08-30T04:45:18;15.37;;;12.70;;
6093;SDS011;19964;42.060;24.700;2023-08-30T04:47:45;14.20;;;11.97;;
6093;SDS011;19964;42.060;24.700;2023-08-30T04:50:13;14.03;;;11.60;;
6093;SDS011;19964;42.060;24.700;2023-08-30T04:52:41;16.10;;;11.77;;
6093;SDS011;19964;42.060;24.700;2023-08-30T04:55:08;12.13;;;10.93;;
6093;SDS011;19964;42.060;24.700;2023-08-30T04:57:36;14.83;;;11.83;;
6093;SDS011;19964;42.060;24.700;2023-08-30T05:00:03;14.67;;;11.13;;
6093;SDS011;19964;42.060;24.700;2023-08-30T05:02:31;16.33;;;11.73;;
6093;SDS011;19964;42.060;24.700;2023-08-30T05:04:58;14.52;;;11.38;;
6093;SDS011;19964;42.060;24.700;2023-08-30T05:07:25;12.10;;;10.47;;
6093;SDS011;19964;42.060;24.700;2023-08-30T05:09:53;12.18;;;10.70;;
6093;SDS011;19964;42.060;24.700;2023-08-30T05:12:20;12.68;;;10.93;;
6093;SDS011;19964;42.060;24.700;2023-08-30T05:14:47;12.90;;;11.27;;
6093;SDS011;19964;42.060;24.700;2023-08-30T05:17:14;13.18;;;10.57;;
6093;SDS011;19964;42.060;24.700;2023-08-30T05:19:41;16.60;;;11.55;;
6093;SDS011;19964;42.060;24.700;2023-08-30T05:22:08;11.55;;;10.52;;
6093;SDS011;19964;42.060;24.700;2023-08-30T05:24:36;12.93;;;11.05;;
6093;SDS011;19964;42.060;24.700;2023-08-30T05:27:04;14.35;;;11.63;;
6093;SDS011;19964;42.060;24.700;2023-08-30T05:29:32;18.83;;;12.13;;
6093;SDS011;19964;42.060;24.700;2023-08-30T05:31:59;17.10;;;12.02;;
6093;SDS011;19964;42.060;24.700;2023-08-30T05:34:26;13.52;;;11.63;;
6093;SDS011;19964;42.060;24.700;2023-08-30T05:36:53;17.10;;;12.50;;
6093;SDS011;19964;42.060;24.700;2023-08-30T05:39:20;14.73;;;11.95;;
6093;SDS011;19964;42.060;24.700;2023-08-30T05:41:47;17.95;;;11.80;;
6093;SDS011;19964;42.060;24.700;2023-08-30T05:44:15;18.30;;;12.80;;
6093;SDS011;19964;42.060;24.700;2023-08-30T05:46:42;14.93;;;13.23;;
6093;SDS011;19964;42.060;24.700;2023-08-30T05:49:10;16.58;;;13.00;;
6093;SDS011;19964;42.060;24.700;2023-08-30T05:51:37;16.00;;;12.80;;
6093;SDS011;19964;42.060;24.700;2023-08-30T05:54:04;16.13;;;13.05;;
6093;SDS011;19964;42.060;24.700;2023-08-30T05:56:32;19.08;;;13.98;;
6093;SDS011;19964;42.060;24.700;2023-08-30T05:58:59;16.35;;;13.85;;
6093;SDS011;19964;42.060;24.700;2023-08-30T06:01:27;14.32;;;12.80;;
6093;SDS011;19964;42.060;24.700;2023-08-30T06:03:54;17.88;;;13.50;;
6093;SDS011;19964;42.060;24.700;2023-08-30T06:06:21;16.35;;;13.55;;
6093;SDS011;19964;42.060;24.700;2023-08-30T06:08:48;21.00;;;13.85;;
6093;SDS011;19964;42.060;24.700;2023-08-30T06:11:15;14.68;;;13.18;;
6093;SDS011;19964;42.060;24.700;2023-08-30T06:13:42;14.20;;;12.80;;
6093;SDS011;19964;42.060;24.700;2023-08-30T06:16:09;14.52;;;13.02;;
6093;SDS011;19964;42.060;24.700;2023-08-30T06:18:37;14.48;;;12.25;;
6093;SDS011;19964;42.060;24.700;2023-08-30T06:21:04;19.08;;;12.68;;
6093;SDS011;19964;42.060;24.700;2023-08-30T06:23:32;14.02;;;12.73;;
6093;SDS011;19964;42.060;24.700;2023-08-30T06:26:00;13.98;;;12.60;;
6093;SDS011;19964;42.060;24.700;2023-08-30T06:28:28;15.10;;;12.90;;
6093;SDS011;19964;42.060;24.700;2023-08-30T06:30:55;14.80;;;13.05;;
6093;SDS011;19964;42.060;24.700;2023-08-30T06:33:22;16.17;;;13.50;;
6093;SDS011;19964;42.060;24.700;2023-08-30T06:35:51;17.63;;;12.85;;
6093;SDS011;19964;42.060;24.700;2023-08-30T06:38:18;17.15;;;11.07;;
6093;SDS011;19964;42.060;24.700;2023-08-30T06:40:45;14.80;;;12.13;;
6093;SDS011;19964;42.060;24.700;2023-08-30T06:43:12;15.00;;;12.80;;
6093;SDS011;19964;42.060;24.700;2023-08-30T06:45:40;12.10;;;10.95;;
6093;SDS011;19964;42.060;24.700;2023-08-30T06:48:07;20.55;;;11.43;;
6093;SDS011;19964;42.060;24.700;2023-08-30T06:50:34;12.07;;;10.88;;
6093;SDS011;19964;42.060;24.700;2023-08-30T06:53:03;15.07;;;10.77;;
6093;SDS011;19964;42.060;24.700;2023-08-30T06:55:30;14.60;;;11.32;;
6093;SDS011;19964;42.060;24.700;2023-08-30T06:57:58;12.70;;;10.50;;
6093;SDS011;19964;42.060;24.700;2023-08-30T07:00:25;12.68;;;11.30;;
6093;SDS011;19964;42.060;24.700;2023-08-30T07:02:52;13.00;;;11.63;;
6093;SDS011;19964;42.060;24.700;2023-08-30T07:05:19;18.02;;;10.80;;
6093;SDS011;19964;42.060;24.700;2023-08-30T07:07:46;11.82;;;10.80;;
6093;SDS011;19964;42.060;24.700;2023-08-30T07:10:15;16.20;;;11.05;;
6093;SDS011;19964;42.060;24.700;2023-08-30T07:12:42;24.67;;;10.60;;
6093;SDS011;19964;42.060;24.700;2023-08-30T07:15:10;13.35;;;11.27;;
6093;SDS011;19964;42.060;24.700;2023-08-30T07:17:37;14.90;;;11.10;;
6093;SDS011;19964;42.060;24.700;2023-08-30T07:20:07;12.73;;;11.45;;
6093;SDS011;19964;42.060;24.700;2023-08-30T07:22:35;11.63;;;10.48;;
6093;SDS011;19964;42.060;24.700;2023-08-30T07:25:02;17.42;;;11.45;;
6093;SDS011;19964;42.060;24.700;2023-08-30T07:27:32;11.32;;;10.18;;
6093;SDS011;19964;42.060;24.700;2023-08-30T07:29:59;13.30;;;10.00;;
6093;SDS011;19964;42.060;24.700;2023-08-30T07:32:26;10.40;;;9.25;;
6093;SDS011;19964;42.060;24.700;2023-08-30T07:34:54;10.57;;;9.48;;
6093;SDS011;19964;42.060;24.700;2023-08-30T07:37:21;12.30;;;9.40;;
6093;SDS011;19964;42.060;24.700;2023-08-30T07:39:48;15.68;;;9.57;;
6093;SDS011;19964;42.060;24.700;2023-08-30T07:42:17;9.60;;;8.80;;
6093;SDS011;19964;42.060;24.700;2023-08-30T07:44:57;12.05;;;9.77;;
6093;SDS011;19964;42.060;24.700;2023-08-30T07:47:24;9.80;;;8.80;;
6093;SDS011;19964;42.060;24.700;2023-08-30T07:49:51;10.35;;;9.10;;
6093;SDS011;19964;42.060;24.700;2023-08-30T07:52:18;10.23;;;9.23;;
6093;SDS011;19964;42.060;24.700;2023-08-30T07:54:51;9.70;;;8.77;;
6093;SDS011;19964;42.060;24.700;2023-08-30T07:57:18;14.32;;;8.98;;
6093;SDS011;19964;42.060;24.700;2023-08-30T07:59:45;11.95;;;9.23;;
6093;SDS011;19964;42.060;24.700;2023-08-30T08:02:13;11.05;;;8.90;;
6093;SDS011;19964;42.060;24.700;2023-08-30T08:04:40;12.30;;;8.98;;
6093;SDS011;19964;42.060;24.700;2023-08-30T08:07:07;12.55;;;9.15;;
6093;SDS011;19964;42.060;24.700;2023-08-30T08:09:35;11.48;;;9.02;;
6093;SDS011;19964;42.060;24.700;2023-08-30T08:12:02;11.70;;;9.30;;
6093;SDS011;19964;42.060;24.700;2023-08-30T08:14:30;13.38;;;9.13;;
6093;SDS011;19964;42.060;24.700;2023-08-30T08:16:57;11.60;;;8.88;;
6093;SDS011;19964;42.060;24.700;2023-08-30T08:19:25;10.32;;;9.07;;
6093;SDS011;19964;42.060;24.700;2023-08-30T08:21:52;11.38;;;9.23;;
6093;SDS011;19964;42.060;24.700;2023-08-30T08:24:19;11.15;;;9.13;;
6093;SDS011;19964;42.060;24.700;2023-08-30T08:26:46;10.65;;;9.05;;
6093;SDS011;19964;42.060;24.700;2023-08-30T08:29:13;10.50;;;8.80;;
6093;SDS011;19964;42.060;24.700;2023-08-30T08:31:40;13.18;;;8.65;;
6093;SDS011;19964;42.060;24.700;2023-08-30T08:34:08;10.15;;;9.15;;
6093;SDS011;19964;42.060;24.700;2023-08-30T08:36:38;13.05;;;9.45;;
6093;SDS011;19964;42.060;24.700;2023-08-30T08:39:07;15.75;;;9.30;;
6093;SDS011;19964;42.060;24.700;2023-08-30T08:41:36;13.77;;;9.20;;
6093;SDS011;19964;42.060;24.700;2023-08-30T08:44:06;9.65;;;8.75;;
6093;SDS011;19964;42.060;24.700;2023-08-30T08:46:34;11.40;;;9.70;;
6093;SDS011;19964;42.060;24.700;2023-08-30T08:49:05;10.27;;;9.32;;
6093;SDS011;19964;42.060;24.700;2023-08-30T08:51:36;11.43;;;9.15;;
6093;SDS011;19964;42.060;24.700;2023-08-30T08:54:05;15.05;;;9.48;;
6093;SDS011;19964;42.060;24.700;2023-08-30T08:56:34;11.02;;;9.43;;
6093;SDS011;19964;42.060;24.700;2023-08-30T08:59:02;10.75;;;9.63;;
6093;SDS011;19964;42.060;24.700;2023-08-30T09:01:30;10.50;;;9.35;;
6093;SDS011;19964;42.060;24.700;2023-08-30T09:04:01;11.07;;;9.15;;
6093;SDS011;19964;42.060;24.700;2023-08-30T09:06:31;10.45;;;9.45;;
6093;SDS011;19964;42.060;24.700;2023-08-30T09:08:58;14.32;;;9.73;;
6093;SDS011;19964;42.060;24.700;2023-08-30T09:11:26;10.35;;;9.40;;
6093;SDS011;19964;42.060;24.700;2023-08-30T09:13:54;10.55;;;9.20;;
6093;SDS011;19964;42.060;24.700;2023-08-30T09:16:20;10.52;;;9.55;;
6093;SDS011;19964;42.060;24.700;2023-08-30T09:18:56;12.73;;;10.05;;
6093;SDS011;19964;42.060;24.700;2023-08-30T09:21:23;11.13;;;9.88;;
6093;SDS011;19964;42.060;24.700;2023-08-30T09:23:56;11.02;;;9.90;;
6093;SDS011;19964;42.060;24.700;2023-08-30T09:26:23;10.45;;;9.45;;
6093;SDS011;19964;42.060;24.700;2023-08-30T09:28:52;13.20;;;9.82;;
6093;SDS011;19964;42.060;24.700;2023-08-30T09:31:19;10.95;;;9.68;;
6093;SDS011;19964;42.060;24.700;2023-08-30T09:33:46;11.63;;;10.15;;
6093;SDS011;19964;42.060;24.700;2023-08-30T09:36:14;12.23;;;9.90;;
6093;SDS011;19964;42.060;24.700;2023-08-30T09:38:41;11.07;;;9.68;;
6093;SDS011;19964;42.060;24.700;2023-08-30T09:41:15;12.55;;;9.95;;
6093;SDS011;19964;42.060;24.700;2023-08-30T09:43:42;12.30;;;9.80;;
6093;SDS011;19964;42.060;24.700;2023-08-30T09:46:12;11.30;;;9.68;;
6093;SDS011;19964;42.060;24.700;2023-08-30T09:48:39;10.75;;;9.60;;
6093;SDS011;19964;42.060;24.700;2023-08-30T09:51:07;11.35;;;10.18;;
6093;SDS011;19964;42.060;24.700;2023-08-30T09:53:42;15.80;;;10.20;;
6093;SDS011;19964;42.060;24.700;2023-08-30T09:56:12;12.23;;;10.43;;
6093;SDS011;19964;42.060;24.700;2023-08-30T09:58:40;11.82;;;10.10;;
6093;SDS011;19964;42.060;24.700;2023-08-30T10:01:08;11.10;;;9.95;;
6093;SDS011;19964;42.060;24.700;2023-08-30T10:03:37;11.52;;;10.43;;
6093;SDS011;19964;42.060;24.700;2023-08-30T10:06:05;12.30;;;10.65;;
6093;SDS011;19964;42.060;24.700;2023-08-30T10:08:33;11.68;;;10.52;;
6093;SDS011;19964;42.060;24.700;2023-08-30T10:11:02;12.40;;;9.82;;
6093;SDS011;19964;42.060;24.700;2023-08-30T10:13:29;10.75;;;9.65;;
6093;SDS011;19964;42.060;24.700;2023-08-30T10:15:58;10.88;;;9.98;;
6093;SDS011;19964;42.060;24.700;2023-08-30T10:18:29;11.93;;;9.65;;
6093;SDS011;19964;42.060;24.700;2023-08-30T10:21:01;11.40;;;10.40;;
6093;SDS011;19964;42.060;24.700;2023-08-30T10:23:34;11.43;;;10.27;;
6093;SDS011;19964;42.060;24.700;2023-08-30T10:26:03;10.95;;;9.95;;
6093;SDS011;19964;42.060;24.700;2023-08-30T10:28:33;11.60;;;10.43;;
6093;SDS011;19964;42.060;24.700;2023-08-30T10:31:02;14.63;;;10.50;;
6093;SDS011;19964;42.060;24.700;2023-08-30T10:33:29;11.32;;;10.27;;
6093;SDS011;19964;42.060;24.700;2023-08-30T10:36:04;13.98;;;10.15;;
6093;SDS011;19964;42.060;24.700;2023-08-30T10:38:32;12.80;;;10.60;;
6093;SDS011;19964;42.060;24.700;2023-08-30T10:41:06;11.73;;;10.50;;
6093;SDS011;19964;42.060;24.700;2023-08-30T10:43:35;13.23;;;10.30;;
6093;SDS011;19964;42.060;24.700;2023-08-30T10:46:03;12.00;;;10.38;;
6093;SDS011;19964;42.060;24.700;2023-08-30T10:48:36;13.95;;;10.50;;
6093;SDS011;19964;42.060;24.700;2023-08-30T10:51:06;11.98;;;10.88;;
6093;SDS011;19964;42.060;24.700;2023-08-30T10:53:43;11.63;;;10.55;;
6093;SDS011;19964;42.060;24.700;2023-08-30T10:56:26;11.50;;;10.35;;
6093;SDS011;19964;42.060;24.700;2023-08-30T10:58:53;11.20;;;9.90;;
6093;SDS011;19964;42.060;24.700;2023-08-30T11:01:20;16.40;;;11.25;;
6093;SDS011;19964;42.060;24.700;2023-08-30T11:03:49;13.25;;;11.10;;
6093;SDS011;19964;42.060;24.700;2023-08-30T11:06:17;11.65;;;10.55;;
6093;SDS011;19964;42.060;24.700;2023-08-30T11:08:44;11.95;;;10.05;;
6093;SDS011;19964;42.060;24.700;2023-08-30T11:11:11;16.25;;;10.93;;
6093;SDS011;19964;42.060;24.700;2023-08-30T11:13:39;12.18;;;10.82;;
6093;SDS011;19964;42.060;24.700;2023-08-30T11:16:06;12.23;;;11.02;;
6093;SDS011;19964;42.060;24.700;2023-08-30T11:18:36;12.77;;;11.00;;
6093;SDS011;19964;42.060;24.700;2023-08-30T11:21:04;13.43;;;10.82;;
6093;SDS011;19964;42.060;24.700;2023-08-30T11:23:34;17.77;;;11.90;;
6093;SDS011;19964;42.060;24.700;2023-08-30T11:26:01;13.07;;;11.77;;
6093;SDS011;19964;42.060;24.700;2023-08-30T11:28:30;14.77;;;11.45;;
6093;SDS011;19964;42.060;24.700;2023-08-30T11:30:57;18.17;;;11.60;;
6093;SDS011;19964;42.060;24.700;2023-08-30T11:33:24;14.85;;;11.68;;
6093;SDS011;19964;42.060;24.700;2023-08-30T11:35:51;13.23;;;11.85;;
6093;SDS011;19964;42.060;24.700;2023-08-30T11:38:18;14.70;;;11.80;;
6093;SDS011;19964;42.060;24.700;2023-08-30T11:40:49;12.50;;;11.35;;
6093;SDS011;19964;42.060;24.700;2023-08-30T11:43:17;12.43;;;11.10;;
6093;SDS011;19964;42.060;24.700;2023-08-30T11:45:45;12.30;;;10.90;;
6093;SDS011;19964;42.060;24.700;2023-08-30T11:48:12;12.95;;;10.73;;
6093;SDS011;19964;42.060;24.700;2023-08-30T11:50:40;12.82;;;11.43;;
6093;SDS011;19964;42.060;24.700;2023-08-30T11:53:08;13.52;;;12.18;;
6093;SDS011;19964;42.060;24.700;2023-08-30T11:55:36;14.18;;;11.63;;
6093;SDS011;19964;42.060;24.700;2023-08-30T11:58:05;12.60;;;11.50;;
6093;SDS011;19964;42.060;24.700;2023-08-30T12:00:34;15.30;;;11.20;;
6093;SDS011;19964;42.060;24.700;2023-08-30T12:03:03;13.40;;;11.75;;
6093;SDS011;19964;42.060;24.700;2023-08-30T12:05:31;12.48;;;11.27;;
6093;SDS011;19964;42.060;24.700;2023-08-30T12:08:00;14.98;;;11.18;;
6093;SDS011;19964;42.060;24.700;2023-08-30T12:10:28;14.20;;;11.20;;
6093;SDS011;19964;42.060;24.700;2023-08-30T12:12:57;14.23;;;11.38;;
6093;SDS011;19964;42.060;24.700;2023-08-30T12:15:25;15.07;;;11.85;;
6093;SDS011;19964;42.060;24.700;2023-08-30T12:17:53;16.40;;;12.10;;
6093;SDS011;19964;42.060;24.700;2023-08-30T12:20:21;13.35;;;11.88;;
6093;SDS011;19964;42.060;24.700;2023-08-30T12:22:48;18.48;;;12.38;;
6093;SDS011;19964;42.060;24.700;2023-08-30T12:25:16;15.10;;;12.20;;
6093;SDS011;19964;42.060;24.700;2023-08-30T12:27:44;17.02;;;12.20;;
6093;SDS011;19964;42.060;24.700;2023-08-30T12:30:12;13.80;;;11.80;;
6093;SDS011;19964;42.060;24.700;2023-08-30T12:32:41;14.60;;;12.27;;
6093;SDS011;19964;42.060;24.700;2023-08-30T12:35:08;14.70;;;11.95;;
6093;SDS011;19964;42.060;24.700;2023-08-30T12:37:35;15.05;;;11.85;;
6093;SDS011;19964;42.060;24.700;2023-08-30T12:40:02;12.18;;;10.90;;
6093;SDS011;19964;42.060;24.700;2023-08-30T12:42:31;21.65;;;11.75;;
6093;SDS011;19964;42.060;24.700;2023-08-30T12:44:58;18.67;;;12.65;;
6093;SDS011;19964;42.060;24.700;2023-08-30T12:47:25;13.65;;;12.40;;
6093;SDS011;19964;42.060;24.700;2023-08-30T12:49:53;15.20;;;12.10;;
6093;SDS011;19964;42.060;24.700;2023-08-30T12:52:20;13.27;;;11.93;;
6093;SDS011;19964;42.060;24.700;2023-08-30T12:54:47;13.85;;;12.55;;
6093;SDS011;19964;42.060;24.700;2023-08-30T12:57:14;13.52;;;12.23;;
6093;SDS011;19964;42.060;24.700;2023-08-30T12:59:41;13.45;;;12.13;;
6093;SDS011;19964;42.060;24.700;2023-08-30T13:02:08;14.93;;;12.27;;
6093;SDS011;19964;42.060;24.700;2023-08-30T13:04:35;15.80;;;12.52;;
6093;SDS011;19964;42.060;24.700;2023-08-30T13:07:05;15.98;;;12.13;;
6093;SDS011;19964;42.060;24.700;2023-08-30T13:09:32;15.30;;;12.60;;
6093;SDS011;19964;42.060;24.700;2023-08-30T13:11:59;16.25;;;11.93;;
6093;SDS011;19964;42.060;24.700;2023-08-30T13:14:27;18.25;;;11.57;;
6093;SDS011;19964;42.060;24.700;2023-08-30T13:16:54;13.07;;;11.98;;
6093;SDS011;19964;42.060;24.700;2023-08-30T13:19:21;13.43;;;11.88;;
6093;SDS011;19964;42.060;24.700;2023-08-30T13:21:48;20.80;;;12.95;;
6093;SDS011;19964;42.060;24.700;2023-08-30T13:24:16;15.63;;;12.90;;
6093;SDS011;19964;42.060;24.700;2023-08-30T13:26:43;18.20;;;12.05;;
6093;SDS011;19964;42.060;24.700;2023-08-30T13:29:10;15.23;;;12.32;;
6093;SDS011;19964;42.060;24.700;2023-08-30T13:31:37;16.60;;;12.73;;
6093;SDS011;19964;42.060;24.700;2023-08-30T13:34:04;13.52;;;12.13;;
6093;SDS011;19964;42.060;24.700;2023-08-30T13:36:31;14.32;;;12.00;;
6093;SDS011;19964;42.060;24.700;2023-08-30T13:38:58;14.07;;;12.57;;
6093;SDS011;19964;42.060;24.700;2023-08-30T13:41:26;15.13;;;12.20;;
6093;SDS011;19964;42.060;24.700;2023-08-30T13:43:53;18.27;;;12.73;;
6093;SDS011;19964;42.060;24.700;2023-08-30T13:46:20;18.48;;;12.10;;
6093;SDS011;19964;42.060;24.700;2023-08-30T13:48:47;16.52;;;12.32;;
6093;SDS011;19964;42.060;24.700;2023-08-30T13:51:13;14.45;;;12.25;;
6093;SDS011;19964;42.060;24.700;2023-08-30T13:53:40;14.32;;;12.82;;
6093;SDS011;19964;42.060;24.700;2023-08-30T13:56:07;14.18;;;12.88;;
6093;SDS011;19964;42.060;24.700;2023-08-30T13:58:36;14.75;;;13.25;;
6093;SDS011;19964;42.060;24.700;2023-08-30T14:01:03;14.30;;;12.18;;
6093;SDS011;19964;42.060;24.700;2023-08-30T14:03:31;15.05;;;13.27;;
6093;SDS011;19964;42.060;24.700;2023-08-30T14:05:58;15.23;;;13.82;;
6093;SDS011;19964;42.060;24.700;2023-08-30T14:08:25;14.10;;;12.68;;
6093;SDS011;19964;42.060;24.700;2023-08-30T14:10:52;17.92;;;14.10;;
6093;SDS011;19964;42.060;24.700;2023-08-30T14:13:19;15.77;;;13.48;;
6093;SDS011;19964;42.060;24.700;2023-08-30T14:15:47;16.75;;;14.50;;
6093;SDS011;19964;42.060;24.700;2023-08-30T14:18:14;17.02;;;13.63;;
6093;SDS011;19964;42.060;24.700;2023-08-30T14:20:41;16.45;;;13.70;;
6093;SDS011;19964;42.060;24.700;2023-08-30T14:23:09;19.90;;;14.00;;
6093;SDS011;19964;42.060;24.700;2023-08-30T14:25:36;15.95;;;14.30;;
6093;SDS011;19964;42.060;24.700;2023-08-30T14:28:03;19.73;;;14.10;;
6093;SDS011;19964;42.060;24.700;2023-08-30T14:30:30;15.48;;;13.98;;
6093;SDS011;19964;42.060;24.700;2023-08-30T14:32:59;19.65;;;14.20;;
6093;SDS011;19964;42.060;24.700;2023-08-30T14:35:26;14.60;;;13.20;;
6093;SDS011;19964;42.060;24.700;2023-08-30T14:37:54;17.77;;;14.48;;
6093;SDS011;19964;42.060;24.700;2023-08-30T14:40:21;17.60;;;13.50;;
6093;SDS011;19964;42.060;24.700;2023-08-30T14:42:48;17.10;;;13.35;;
6093;SDS011;19964;42.060;24.700;2023-08-30T14:45:15;16.00;;;13.38;;
6093;SDS011;19964;42.060;24.700;2023-08-30T14:47:42;15.32;;;13.65;;
6093;SDS011;19964;42.060;24.700;2023-08-30T14:50:11;17.85;;;13.80;;
6093;SDS011;19964;42.060;24.700;2023-08-30T14:52:38;14.43;;;12.93;;
6093;SDS011;19964;42.060;24.700;2023-08-30T14:55:05;14.25;;;12.90;;
6093;SDS011;19964;42.060;24.700;2023-08-30T14:57:33;14.75;;;13.27;;
6093;SDS011;19964;42.060;24.700;2023-08-30T15:00:00;14.95;;;13.50;;
6093;SDS011;19964;42.060;24.700;2023-08-30T15:02:27;15.35;;;13.18;;
6093;SDS011;19964;42.060;24.700;2023-08-30T15:04:56;17.60;;;13.73;;
6093;SDS011;19964;42.060;24.700;2023-08-30T15:07:24;17.80;;;12.93;;
6093;SDS011;19964;42.060;24.700;2023-08-30T15:09:51;13.95;;;12.65;;